sensor_id;sensor_type;location;lat;lon;timestamp;pressure;altitude;pressure_sealevel;temperature;humidity
5814;BME280;2933;52.302;8.134;2023-04-08T00:00:40;101174.16;;;4.12;96.24
5814;BME280;2933;52.302;8.134;2023-04-08T00:05:41;101171.78;;;4.02;96.74
5814;BME280;2933;52.302;8.134;2023-04-08T00:10:43;101172.94;;;3.89;97.32
5814;BME280;2933;52.302;8.134;2023-04-08T00:15:46;101172.78;;;3.97;97.04
5814;BME280;2933;52.302;8.134;2023-04-08T00:20:47;101173.69;;;3.94;97.75
5814;BME280;2933;52.302;8.134;2023-04-08T00:25:49;101169.41;;;3.52;100.00
5814;BME280;2933;52.302;8.134;2023-04-08T00:30:52;101174.59;;;3.51;100.00
5814;BME280;2933;52.302;8.134;2023-04-08T00:35:54;101178.25;;;3.40;100.00
5814;BME280;2933;52.302;8.134;2023-04-08T00:40:56;101176.50;;;3.43;100.00
5814;BME280;2933;52.302;8.134;2023-04-08T00:45:59;101167.97;;;3.37;100.00
5814;BME280;2933;52.302;8.134;2023-04-08T00:51:00;101177.47;;;3.37;100.00
5814;BME280;2933;52.302;8.134;2023-04-08T00:56:03;101178.09;;;3.48;100.00
5814;BME280;2933;52.302;8.134;2023-04-08T01:01:10;101180.53;;;3.56;100.00
5814;BME280;2933;52.302;8.134;2023-04-08T01:06:21;101181.19;;;3.66;100.00
5814;BME280;2933;52.302;8.134;2023-04-08T01:11:28;101177.88;;;3.59;100.00
5814;BME280;2933;52.302;8.134;2023-04-08T01:16:36;101177.00;;;3.60;100.00
5814;BME280;2933;52.302;8.134;2023-04-08T01:21:38;101166.63;;;3.62;100.00
5814;BME280;2933;52.302;8.134;2023-04-08T01:26:42;101181.25;;;3.63;100.00
5814;BME280;2933;52.302;8.134;2023-04-08T01:31:45;101177.69;;;3.68;100.00
5814;BME280;2933;52.302;8.134;2023-04-08T01:36:48;101186.75;;;3.88;100.00
5814;BME280;2933;52.302;8.134;2023-04-08T01:41:52;101189.06;;;4.00;100.00
5814;BME280;2933;52.302;8.134;2023-04-08T01:46:55;101189.72;;;4.09;100.00
5814;BME280;2933;52.302;8.134;2023-04-08T01:51:57;101193.94;;;4.14;100.00
5814;BME280;2933;52.302;8.134;2023-04-08T01:57:03;101183.34;;;4.24;100.00
5814;BME280;2933;52.302;8.134;2023-04-08T02:02:08;101202.00;;;4.38;100.00
5814;BME280;2933;52.302;8.134;2023-04-08T02:07:10;101192.47;;;4.40;100.00
5814;BME280;2933;52.302;8.134;2023-04-08T02:12:13;101202.50;;;4.52;100.00
5814;BME280;2933;52.302;8.134;2023-04-08T02:17:20;101196.41;;;4.57;100.00
5814;BME280;2933;52.302;8.134;2023-04-08T02:22:30;101210.44;;;4.46;100.00
5814;BME280;2933;52.302;8.134;2023-04-08T02:27:38;101211.03;;;4.56;100.00
5814;BME280;2933;52.302;8.134;2023-04-08T02:32:40;101205.84;;;4.58;100.00
5814;BME280;2933;52.302;8.134;2023-04-08T02:37:44;101206.28;;;4.75;100.00
5814;BME280;2933;52.302;8.134;2023-04-08T02:42:48;101210.09;;;4.60;100.00
5814;BME280;2933;52.302;8.134;2023-04-08T02:47:50;101200.84;;;4.50;100.00
5814;BME280;2933;52.302;8.134;2023-04-08T02:52:51;101210.13;;;4.59;100.00
5814;BME280;2933;52.302;8.134;2023-04-08T02:57:54;101216.91;;;4.64;100.00
5814;BME280;2933;52.302;8.134;2023-04-08T03:02:56;101219.63;;;4.58;100.00
5814;BME280;2933;52.302;8.134;2023-04-08T03:07:57;101216.16;;;4.59;100.00
5814;BME280;2933;52.302;8.134;2023-04-08T03:13:00;101215.72;;;4.42;100.00
5814;BME280;2933;52.302;8.134;2023-04-08T03:18:02;101226.94;;;4.41;100.00
5814;BME280;2933;52.302;8.134;2023-04-08T03:23:04;101225.19;;;4.41;100.00
5814;BME280;2933;52.302;8.134;2023-04-08T03:28:07;101222.63;;;4.41;100.00
5814;BME280;2933;52.302;8.134;2023-04-08T03:33:09;101226.72;;;4.50;100.00
5814;BME280;2933;52.302;8.134;2023-04-08T03:38:11;101220.56;;;4.56;100.00
5814;BME280;2933;52.302;8.134;2023-04-08T03:43:14;101216.28;;;4.55;100.00
5814;BME280;2933;52.302;8.134;2023-04-08T03:48:15;101213.63;;;4.58;100.00
5814;BME280;2933;52.302;8.134;2023-04-08T03:53:17;101222.38;;;4.52;100.00
5814;BME280;2933;52.302;8.134;2023-04-08T03:58:20;101222.28;;;4.57;100.00
5814;BME280;2933;52.302;8.134;2023-04-08T04:03:21;101212.81;;;4.56;100.00
5814;BME280;2933;52.302;8.134;2023-04-08T04:08:24;101217.97;;;4.56;100.00
5814;BME280;2933;52.302;8.134;2023-04-08T04:13:26;101224.13;;;4.50;100.00
5814;BME280;2933;52.302;8.134;2023-04-08T04:18:28;101233.50;;;4.56;100.00
5814;BME280;2933;52.302;8.134;2023-04-08T04:23:29;101233.75;;;4.45;100.00
5814;BME280;2933;52.302;8.134;2023-04-08T04:28:32;101237.06;;;4.50;100.00
5814;BME280;2933;52.302;8.134;2023-04-08T04:33:34;101233.00;;;4.40;100.00
5814;BME280;2933;52.302;8.134;2023-04-08T04:38:35;101244.09;;;4.46;100.00
5814;BME280;2933;52.302;8.134;2023-04-08T04:43:39;101237.22;;;4.44;100.00
5814;BME280;2933;52.302;8.134;2023-04-08T04:48:41;101249.16;;;4.49;100.00
5814;BME280;2933;52.302;8.134;2023-04-08T04:53:42;101261.03;;;4.58;100.00
5814;BME280;2933;52.302;8.134;2023-04-08T04:58:45;101264.31;;;4.65;100.00
5814;BME280;2933;52.302;8.134;2023-04-08T05:03:46;101261.13;;;4.53;100.00
5814;BME280;2933;52.302;8.134;2023-04-08T05:08:48;101267.13;;;4.56;100.00
5814;BME280;2933;52.302;8.134;2023-04-08T05:13:52;101268.13;;;4.50;100.00
5814;BME280;2933;52.302;8.134;2023-04-08T05:18:53;101275.94;;;4.48;100.00
5814;BME280;2933;52.302;8.134;2023-04-08T05:23:55;101273.69;;;4.33;100.00
5814;BME280;2933;52.302;8.134;2023-04-08T05:28:58;101277.00;;;4.40;100.00
5814;BME280;2933;52.302;8.134;2023-04-08T05:33:59;101276.94;;;4.43;100.00
5814;BME280;2933;52.302;8.134;2023-04-08T05:39:01;101289.59;;;4.55;100.00
5814;BME280;2933;52.302;8.134;2023-04-08T05:44:04;101292.19;;;4.55;100.00
5814;BME280;2933;52.302;8.134;2023-04-08T05:49:05;101286.66;;;4.31;100.00
5814;BME280;2933;52.302;8.134;2023-04-08T05:54:07;101301.88;;;4.45;100.00
5814;BME280;2933;52.302;8.134;2023-04-08T05:59:10;101302.41;;;4.60;100.00
5814;BME280;2933;52.302;8.134;2023-04-08T06:04:11;101310.72;;;4.74;100.00
5814;BME280;2933;52.302;8.134;2023-04-08T06:09:13;101314.13;;;4.76;100.00
5814;BME280;2933;52.302;8.134;2023-04-08T06:14:16;101312.53;;;4.71;100.00
5814;BME280;2933;52.302;8.134;2023-04-08T06:19:17;101327.72;;;4.84;100.00
5814;BME280;2933;52.302;8.134;2023-04-08T06:24:19;101330.34;;;4.83;100.00
5814;BME280;2933;52.302;8.134;2023-04-08T06:29:22;101339.88;;;4.82;100.00
5814;BME280;2933;52.302;8.134;2023-04-08T06:34:24;101341.50;;;4.87;100.00
5814;BME280;2933;52.302;8.134;2023-04-08T06:39:25;101347.75;;;4.78;100.00
5814;BME280;2933;52.302;8.134;2023-04-08T06:44:28;101354.53;;;4.82;100.00
5814;BME280;2933;52.302;8.134;2023-04-08T06:49:30;101359.66;;;4.83;100.00
5814;BME280;2933;52.302;8.134;2023-04-08T06:54:31;101361.31;;;4.88;100.00
5814;BME280;2933;52.302;8.134;2023-04-08T06:59:34;101362.88;;;4.95;100.00
5814;BME280;2933;52.302;8.134;2023-04-08T07:04:36;101358.88;;;4.81;100.00
5814;BME280;2933;52.302;8.134;2023-04-08T07:09:37;101377.81;;;5.20;100.00
5814;BME280;2933;52.302;8.134;2023-04-08T07:14:42;101379.19;;;4.98;100.00
5814;BME280;2933;52.302;8.134;2023-04-08T07:19:43;101383.97;;;5.15;100.00
5814;BME280;2933;52.302;8.134;2023-04-08T07:24:45;101383.00;;;5.21;100.00
5814;BME280;2933;52.302;8.134;2023-04-08T07:29:52;101389.97;;;5.17;100.00
5814;BME280;2933;52.302;8.134;2023-04-08T07:34:55;101391.84;;;5.12;100.00
5814;BME280;2933;52.302;8.134;2023-04-08T07:39:56;101388.19;;;5.20;100.00
5814;BME280;2933;52.302;8.134;2023-04-08T07:44:59;101399.03;;;5.36;100.00
5814;BME280;2933;52.302;8.134;2023-04-08T07:50:01;101398.28;;;5.30;100.00
5814;BME280;2933;52.302;8.134;2023-04-08T07:55:03;101401.97;;;5.22;100.00
5814;BME280;2933;52.302;8.134;2023-04-08T08:00:08;101406.59;;;5.09;100.00
5814;BME280;2933;52.302;8.134;2023-04-08T08:05:09;101402.19;;;5.11;100.00
5814;BME280;2933;52.302;8.134;2023-04-08T08:10:11;101400.25;;;5.21;100.00
5814;BME280;2933;52.302;8.134;2023-04-08T08:15:14;101415.09;;;5.14;100.00
5814;BME280;2933;52.302;8.134;2023-04-08T08:20:16;101416.56;;;5.24;100.00
5814;BME280;2933;52.302;8.134;2023-04-08T08:25:17;101421.38;;;5.41;100.00
5814;BME280;2933;52.302;8.134;2023-04-08T08:30:20;101426.94;;;5.60;100.00
5814;BME280;2933;52.302;8.134;2023-04-08T08:35:22;101429.72;;;5.53;100.00
5814;BME280;2933;52.302;8.134;2023-04-08T08:40:23;101432.31;;;5.53;100.00
5814;BME280;2933;52.302;8.134;2023-04-08T08:45:26;101437.25;;;5.63;100.00
5814;BME280;2933;52.302;8.134;2023-04-08T08:50:28;101441.53;;;5.64;100.00
5814;BME280;2933;52.302;8.134;2023-04-08T08:55:30;101449.47;;;5.58;100.00
5814;BME280;2933;52.302;8.134;2023-04-08T09:00:35;101447.25;;;5.77;100.00
5814;BME280;2933;52.302;8.134;2023-04-08T09:05:46;101452.53;;;6.09;100.00
5814;BME280;2933;52.302;8.134;2023-04-08T09:10:47;101450.63;;;6.16;100.00
5814;BME280;2933;52.302;8.134;2023-04-08T09:16:01;101447.66;;;6.29;100.00
5814;BME280;2933;52.302;8.134;2023-04-08T09:21:05;101448.50;;;6.30;100.00
5814;BME280;2933;52.302;8.134;2023-04-08T09:26:08;101450.34;;;6.56;100.00
5814;BME280;2933;52.302;8.134;2023-04-08T09:31:21;101449.22;;;6.67;100.00
5814;BME280;2933;52.302;8.134;2023-04-08T09:36:23;101444.66;;;6.43;100.00
5814;BME280;2933;52.302;8.134;2023-04-08T09:41:27;101452.00;;;6.60;100.00
5814;BME280;2933;52.302;8.134;2023-04-08T09:46:32;101455.72;;;6.50;100.00
5814;BME280;2933;52.302;8.134;2023-04-08T09:51:40;101464.25;;;6.55;100.00
5814;BME280;2933;52.302;8.134;2023-04-08T09:57:00;101457.03;;;6.65;100.00
5814;BME280;2933;52.302;8.134;2023-04-08T10:02:06;101474.72;;;6.82;100.00
5814;BME280;2933;52.302;8.134;2023-04-08T10:07:09;101461.84;;;6.79;100.00
5814;BME280;2933;52.302;8.134;2023-04-08T10:12:11;101459.41;;;7.03;100.00
5814;BME280;2933;52.302;8.134;2023-04-08T10:17:26;101462.97;;;6.99;100.00
5814;BME280;2933;52.302;8.134;2023-04-08T10:22:47;101469.78;;;7.03;100.00
5814;BME280;2933;52.302;8.134;2023-04-08T10:27:49;101460.75;;;7.15;100.00
5814;BME280;2933;52.302;8.134;2023-04-08T10:32:52;101480.66;;;7.16;100.00
5814;BME280;2933;52.302;8.134;2023-04-08T10:37:55;101476.91;;;7.24;100.00
5814;BME280;2933;52.302;8.134;2023-04-08T10:42:58;101484.47;;;7.32;100.00
5814;BME280;2933;52.302;8.134;2023-04-08T10:48:13;101490.22;;;7.43;100.00
5814;BME280;2933;52.302;8.134;2023-04-08T10:53:15;101487.94;;;7.33;100.00
5814;BME280;2933;52.302;8.134;2023-04-08T10:58:17;101494.22;;;7.25;100.00
5814;BME280;2933;52.302;8.134;2023-04-08T11:03:26;101491.09;;;7.42;100.00
5814;BME280;2933;52.302;8.134;2023-04-08T11:08:27;101487.09;;;7.59;100.00
5814;BME280;2933;52.302;8.134;2023-04-08T11:13:30;101491.28;;;7.63;100.00
5814;BME280;2933;52.302;8.134;2023-04-08T11:18:34;101489.84;;;7.54;100.00
5814;BME280;2933;52.302;8.134;2023-04-08T11:23:37;101490.72;;;7.55;100.00
5814;BME280;2933;52.302;8.134;2023-04-08T11:28:38;101488.41;;;7.72;100.00
5814;BME280;2933;52.302;8.134;2023-04-08T11:33:45;101491.34;;;7.88;100.00
5814;BME280;2933;52.302;8.134;2023-04-08T11:38:47;101478.63;;;8.06;100.00
5814;BME280;2933;52.302;8.134;2023-04-08T11:43:50;101482.91;;;8.32;100.00
5814;BME280;2933;52.302;8.134;2023-04-08T11:49:01;101482.28;;;8.25;100.00
5814;BME280;2933;52.302;8.134;2023-04-08T11:54:04;101486.09;;;8.15;100.00
5814;BME280;2933;52.302;8.134;2023-04-08T11:59:06;101483.06;;;8.28;100.00
5814;BME280;2933;52.302;8.134;2023-04-08T12:04:09;101483.88;;;8.04;100.00
5814;BME280;2933;52.302;8.134;2023-04-08T12:09:11;101484.09;;;7.98;100.00
5814;BME280;2933;52.302;8.134;2023-04-08T12:14:13;101483.97;;;8.27;100.00
5814;BME280;2933;52.302;8.134;2023-04-08T12:19:15;101479.28;;;8.36;100.00
5814;BME280;2933;52.302;8.134;2023-04-08T12:24:17;101487.09;;;8.62;100.00
5814;BME280;2933;52.302;8.134;2023-04-08T12:29:18;101483.53;;;8.64;100.00
5814;BME280;2933;52.302;8.134;2023-04-08T12:34:21;101493.72;;;8.45;100.00
5814;BME280;2933;52.302;8.134;2023-04-08T12:39:24;101494.50;;;8.49;100.00
5814;BME280;2933;52.302;8.134;2023-04-08T12:44:26;101499.56;;;8.28;100.00
5814;BME280;2933;52.302;8.134;2023-04-08T12:49:28;101488.50;;;8.45;100.00
5814;BME280;2933;52.302;8.134;2023-04-08T12:54:30;101482.88;;;8.59;100.00
5814;BME280;2933;52.302;8.134;2023-04-08T12:59:32;101488.63;;;8.67;100.00
5814;BME280;2933;52.302;8.134;2023-04-08T13:04:35;101494.69;;;8.68;100.00
5814;BME280;2933;52.302;8.134;2023-04-08T13:09:36;101496.22;;;8.73;100.00
5814;BME280;2933;52.302;8.134;2023-04-08T13:14:38;101495.66;;;8.65;100.00
5814;BME280;2933;52.302;8.134;2023-04-08T13:19:40;101493.28;;;8.83;100.00
5814;BME280;2933;52.302;8.134;2023-04-08T13:24:42;101495.03;;;8.82;100.00
5814;BME280;2933;52.302;8.134;2023-04-08T13:29:43;101493.72;;;8.94;100.00
5814;BME280;2933;52.302;8.134;2023-04-08T13:34:46;101485.91;;;8.94;100.00
5814;BME280;2933;52.302;8.134;2023-04-08T13:39:48;101480.63;;;8.96;100.00
5814;BME280;2933;52.302;8.134;2023-04-08T13:44:49;101488.59;;;8.91;100.00
5814;BME280;2933;52.302;8.134;2023-04-08T13:49:52;101487.78;;;8.67;100.00
5814;BME280;2933;52.302;8.134;2023-04-08T13:54:54;101491.28;;;8.66;100.00
5814;BME280;2933;52.302;8.134;2023-04-08T13:59:55;101494.50;;;8.72;100.00
5814;BME280;2933;52.302;8.134;2023-04-08T14:04:58;101496.38;;;8.69;100.00
5814;BME280;2933;52.302;8.134;2023-04-08T14:10:00;101500.66;;;8.71;100.00
5814;BME280;2933;52.302;8.134;2023-04-08T14:15:01;101501.25;;;8.78;100.00
5814;BME280;2933;52.302;8.134;2023-04-08T14:20:05;101494.63;;;8.69;100.00
5814;BME280;2933;52.302;8.134;2023-04-08T14:25:08;101499.50;;;8.55;100.00
5814;BME280;2933;52.302;8.134;2023-04-08T14:30:10;101504.69;;;8.55;100.00
5814;BME280;2933;52.302;8.134;2023-04-08T14:35:13;101498.03;;;8.71;100.00
5814;BME280;2933;52.302;8.134;2023-04-08T14:40:14;101485.41;;;8.84;100.00
5814;BME280;2933;52.302;8.134;2023-04-08T14:45:16;101478.38;;;8.86;100.00
5814;BME280;2933;52.302;8.134;2023-04-08T14:50:19;101476.91;;;8.79;100.00
5814;BME280;2933;52.302;8.134;2023-04-08T14:55:21;101482.56;;;8.67;100.00
5814;BME280;2933;52.302;8.134;2023-04-08T15:00:23;101482.69;;;8.64;100.00
5814;BME280;2933;52.302;8.134;2023-04-08T15:05:26;101478.56;;;8.58;100.00
5814;BME280;2933;52.302;8.134;2023-04-08T15:10:27;101469.78;;;8.61;100.00
5814;BME280;2933;52.302;8.134;2023-04-08T15:15:29;101473.28;;;8.60;100.00
5814;BME280;2933;52.302;8.134;2023-04-08T15:20:32;101483.13;;;8.75;100.00
5814;BME280;2933;52.302;8.134;2023-04-08T15:25:33;101482.16;;;8.78;100.00
5814;BME280;2933;52.302;8.134;2023-04-08T15:30:35;101479.63;;;8.76;100.00
5814;BME280;2933;52.302;8.134;2023-04-08T15:35:38;101486.63;;;8.50;100.00
5814;BME280;2933;52.302;8.134;2023-04-08T15:40:41;101481.91;;;8.62;100.00
5814;BME280;2933;52.302;8.134;2023-04-08T15:45:42;101472.44;;;8.59;100.00
5814;BME280;2933;52.302;8.134;2023-04-08T15:50:46;101480.66;;;8.72;100.00
5814;BME280;2933;52.302;8.134;2023-04-08T15:55:48;101479.28;;;8.85;100.00
5814;BME280;2933;52.302;8.134;2023-04-08T16:00:49;101485.91;;;8.70;100.00
5814;BME280;2933;52.302;8.134;2023-04-08T16:05:53;101495.91;;;8.57;100.00
5814;BME280;2933;52.302;8.134;2023-04-08T16:10:58;101492.75;;;8.49;100.00
5814;BME280;2933;52.302;8.134;2023-04-08T16:16:01;101495.59;;;8.16;100.00
5814;BME280;2933;52.302;8.134;2023-04-08T16:21:04;101500.75;;;8.18;100.00
5814;BME280;2933;52.302;8.134;2023-04-08T16:26:06;101491.97;;;8.22;100.00
5814;BME280;2933;52.302;8.134;2023-04-08T16:31:07;101486.53;;;8.28;100.00
5814;BME280;2933;52.302;8.134;2023-04-08T16:36:10;101494.59;;;8.20;100.00
5814;BME280;2933;52.302;8.134;2023-04-08T16:41:12;101499.34;;;8.34;100.00
5814;BME280;2933;52.302;8.134;2023-04-08T16:46:15;101505.44;;;8.33;100.00
5814;BME280;2933;52.302;8.134;2023-04-08T16:51:18;101504.72;;;8.04;100.00
5814;BME280;2933;52.302;8.134;2023-04-08T16:56:19;101496.16;;;8.01;100.00
5814;BME280;2933;52.302;8.134;2023-04-08T17:01:21;101511.97;;;7.95;100.00
5814;BME280;2933;52.302;8.134;2023-04-08T17:06:24;101516.56;;;7.86;100.00
5814;BME280;2933;52.302;8.134;2023-04-08T17:11:26;101519.84;;;7.91;100.00
5814;BME280;2933;52.302;8.134;2023-04-08T17:16:27;101523.47;;;7.87;100.00
5814;BME280;2933;52.302;8.134;2023-04-08T17:21:31;101523.53;;;7.86;100.00
5814;BME280;2933;52.302;8.134;2023-04-08T17:26:32;101517.53;;;7.84;100.00
5814;BME280;2933;52.302;8.134;2023-04-08T17:31:34;101523.69;;;7.81;100.00
5814;BME280;2933;52.302;8.134;2023-04-08T17:36:37;101537.13;;;7.67;100.00
5814;BME280;2933;52.302;8.134;2023-04-08T17:41:38;101530.09;;;7.69;100.00
5814;BME280;2933;52.302;8.134;2023-04-08T17:46:40;101525.47;;;7.79;100.00
5814;BME280;2933;52.302;8.134;2023-04-08T17:51:43;101521.31;;;7.73;100.00
5814;BME280;2933;52.302;8.134;2023-04-08T17:56:44;101528.47;;;7.67;100.00
5814;BME280;2933;52.302;8.134;2023-04-08T18:01:46;101536.47;;;7.60;100.00
5814;BME280;2933;52.302;8.134;2023-04-08T18:06:49;101533.84;;;7.60;100.00
5814;BME280;2933;52.302;8.134;2023-04-08T18:11:50;101539.16;;;7.57;100.00
5814;BME280;2933;52.302;8.134;2023-04-08T18:16:52;101541.81;;;7.56;100.00
5814;BME280;2933;52.302;8.134;2023-04-08T18:21:55;101545.34;;;7.53;100.00
5814;BME280;2933;52.302;8.134;2023-04-08T18:26:56;101556.41;;;7.60;100.00
5814;BME280;2933;52.302;8.134;2023-04-08T18:31:58;101553.88;;;7.58;100.00
5814;BME280;2933;52.302;8.134;2023-04-08T18:37:01;101565.06;;;7.60;100.00
5814;BME280;2933;52.302;8.134;2023-04-08T18:42:02;101568.59;;;7.58;100.00
5814;BME280;2933;52.302;8.134;2023-04-08T18:47:04;101574.69;;;7.58;100.00
5814;BME280;2933;52.302;8.134;2023-04-08T18:52:07;101586.72;;;7.61;100.00
5814;BME280;2933;52.302;8.134;2023-04-08T18:57:09;101590.47;;;7.52;100.00
5814;BME280;2933;52.302;8.134;2023-04-08T19:02:11;101587.81;;;7.54;100.00
5814;BME280;2933;52.302;8.134;2023-04-08T19:07:14;101595.50;;;7.57;100.00
5814;BME280;2933;52.302;8.134;2023-04-08T19:12:16;101595.69;;;7.51;100.00
5814;BME280;2933;52.302;8.134;2023-04-08T19:17:17;101596.56;;;7.51;100.00
5814;BME280;2933;52.302;8.134;2023-04-08T19:22:20;101601.84;;;7.48;100.00
5814;BME280;2933;52.302;8.134;2023-04-08T19:27:24;101598.53;;;7.43;100.00
5814;BME280;2933;52.302;8.134;2023-04-08T19:32:26;101601.13;;;7.43;100.00
5814;BME280;2933;52.302;8.134;2023-04-08T19:37:29;101593.44;;;7.40;100.00
5814;BME280;2933;52.302;8.134;2023-04-08T19:42:30;101593.16;;;7.49;100.00
5814;BME280;2933;52.302;8.134;2023-04-08T19:47:32;101589.91;;;7.41;100.00
5814;BME280;2933;52.302;8.134;2023-04-08T19:52:35;101599.47;;;7.40;100.00
5814;BME280;2933;52.302;8.134;2023-04-08T19:57:37;101600.28;;;7.42;100.00
5814;BME280;2933;52.302;8.134;2023-04-08T20:02:38;101595.03;;;7.44;100.00
5814;BME280;2933;52.302;8.134;2023-04-08T20:07:41;101600.13;;;7.47;100.00
5814;BME280;2933;52.302;8.134;2023-04-08T20:12:43;101599.66;;;7.34;100.00
5814;BME280;2933;52.302;8.134;2023-04-08T20:17:44;101606.81;;;7.26;100.00
5814;BME280;2933;52.302;8.134;2023-04-08T20:22:47;101602.44;;;7.28;100.00
5814;BME280;2933;52.302;8.134;2023-04-08T20:27:49;101612.72;;;7.33;100.00
5814;BME280;2933;52.302;8.134;2023-04-08T20:32:51;101611.00;;;7.32;100.00
5814;BME280;2933;52.302;8.134;2023-04-08T20:37:54;101611.88;;;7.31;100.00
5814;BME280;2933;52.302;8.134;2023-04-08T20:42:55;101623.88;;;7.36;100.00
5814;BME280;2933;52.302;8.134;2023-04-08T20:47:57;101616.59;;;7.18;100.00
5814;BME280;2933;52.302;8.134;2023-04-08T20:53:00;101625.25;;;7.18;100.00
5814;BME280;2933;52.302;8.134;2023-04-08T20:58:02;101621.97;;;7.11;100.00
5814;BME280;2933;52.302;8.134;2023-04-08T21:03:06;101626.09;;;7.19;100.00
5814;BME280;2933;52.302;8.134;2023-04-08T21:08:09;101625.59;;;7.06;100.00
5814;BME280;2933;52.302;8.134;2023-04-08T21:13:11;101630.75;;;7.07;100.00
5814;BME280;2933;52.302;8.134;2023-04-08T21:18:12;101628.16;;;7.07;100.00
5814;BME280;2933;52.302;8.134;2023-04-08T21:23:15;101616.13;;;7.03;100.00
5814;BME280;2933;52.302;8.134;2023-04-08T21:28:17;101611.88;;;7.01;100.00
5814;BME280;2933;52.302;8.134;2023-04-08T21:33:18;101618.72;;;7.03;100.00
5814;BME280;2933;52.302;8.134;2023-04-08T21:38:21;101615.97;;;7.09;100.00
5814;BME280;2933;52.302;8.134;2023-04-08T21:43:23;101613.19;;;7.16;100.00
5814;BME280;2933;52.302;8.134;2023-04-08T21:48:24;101611.88;;;7.01;100.00
5814;BME280;2933;52.302;8.134;2023-04-08T21:53:28;101599.59;;;7.06;100.00
5814;BME280;2933;52.302;8.134;2023-04-08T21:58:29;101601.53;;;6.99;100.00
5814;BME280;2933;52.302;8.134;2023-04-08T22:03:31;101599.06;;;6.94;100.00
5814;BME280;2933;52.302;8.134;2023-04-08T22:08:33;101596.91;;;6.77;100.00
5814;BME280;2933;52.302;8.134;2023-04-08T22:13:35;101599.59;;;6.74;100.00
5814;BME280;2933;52.302;8.134;2023-04-08T22:18:36;101600.59;;;6.70;100.00
5814;BME280;2933;52.302;8.134;2023-04-08T22:23:39;101594.84;;;6.59;100.00
5814;BME280;2933;52.302;8.134;2023-04-08T22:28:41;101596.03;;;6.45;100.00
5814;BME280;2933;52.302;8.134;2023-04-08T22:33:43;101591.69;;;6.46;100.00
5814;BME280;2933;52.302;8.134;2023-04-08T22:38:46;101591.38;;;6.58;100.00
5814;BME280;2933;52.302;8.134;2023-04-08T22:43:48;101595.00;;;6.51;100.00
5814;BME280;2933;52.302;8.134;2023-04-08T22:48:50;101592.78;;;6.37;100.00
5814;BME280;2933;52.302;8.134;2023-04-08T22:53:53;101595.53;;;6.31;100.00
5814;BME280;2933;52.302;8.134;2023-04-08T22:58:55;101598.84;;;6.36;100.00
5814;BME280;2933;52.302;8.134;2023-04-08T23:03:56;101597.28;;;6.30;100.00
5814;BME280;2933;52.302;8.134;2023-04-08T23:08:59;101599.00;;;6.32;100.00
5814;BME280;2933;52.302;8.134;2023-04-08T23:14:01;101598.81;;;6.38;100.00
5814;BME280;2933;52.302;8.134;2023-04-08T23:19:02;101603.41;;;6.26;100.00
5814;BME280;2933;52.302;8.134;2023-04-08T23:24:05;101607.72;;;6.27;100.00
5814;BME280;2933;52.302;8.134;2023-04-08T23:29:07;101596.63;;;6.22;100.00
5814;BME280;2933;52.302;8.134;2023-04-08T23:34:09;101600.53;;;6.03;100.00
5814;BME280;2933;52.302;8.134;2023-04-08T23:39:12;101595.34;;;6.04;100.00
5814;BME280;2933;52.302;8.134;2023-04-08T23:44:14;101596.13;;;6.06;100.00
5814;BME280;2933;52.302;8.134;2023-04-08T23:49:15;101595.59;;;5.90;100.00
5814;BME280;2933;52.302;8.134;2023-04-08T23:54:18;101603.53;;;5.86;100.00
5814;BME280;2933;52.302;8.134;2023-04-08T23:59:20;101595.66;;;5.89;100.00
